Time;durP1;ratioP1;P1;durP2;ratioP2;P2;SDS_P1;SDS_P2;PMS_P1;PMS_P2;Temp;Humidity;BMP_temperature;BMP_pressure;BME280_temperature;BME280_humidity;BME280_pressure;Samples;Min_cycle;Max_cycle;Signal;HPM_P1;HPM_P2
2022/10/22 00:02:03;;;;;;;10.33;3.43;;;19.70;70.20;;;;;;5031214;28;20211;-90
2022/10/22 00:04:30;;;;;;;14.97;4.13;;;19.70;70.40;;;;;;5026906;28;20360;-89
2022/10/22 00:06:58;;;;;;;14.57;4.73;;;19.60;70.30;;;;;;5012322;28;20204;-91
2022/10/22 00:09:25;;;;;;;11.60;4.10;;;19.70;70.60;;;;;;5018954;28;20288;-91
2022/10/22 00:11:52;;;;;;;11.37;3.17;;;19.60;70.40;;;;;;5017853;28;20295;-90
2022/10/22 00:14:19;;;;;;;12.87;4.00;;;19.60;70.50;;;;;;5021636;28;20256;-90
2022/10/22 00:16:46;;;;;;;13.57;4.47;;;19.60;70.60;;;;;;5020003;28;20300;-89
2022/10/22 00:19:14;;;;;;;11.53;3.40;;;19.60;70.70;;;;;;5009646;28;20220;-88
2022/10/22 00:21:41;;;;;;;13.87;4.37;;;19.60;70.70;;;;;;5013837;28;20208;-91
2022/10/22 00:24:10;;;;;;;15.73;5.00;;;19.60;70.90;;;;;;5020537;28;20245;-89
2022/10/22 00:26:38;;;;;;;11.17;4.07;;;19.60;71.00;;;;;;5010781;28;20207;-90
2022/10/22 00:29:05;;;;;;;11.80;3.97;;;19.50;70.90;;;;;;5013938;28;20274;-89
2022/10/22 00:31:34;;;;;;;14.87;3.87;;;19.50;70.90;;;;;;5018215;28;20243;-89
2022/10/22 00:34:01;;;;;;;13.97;4.73;;;19.50;71.00;;;;;;5010690;28;20262;-89
2022/10/22 00:36:28;;;;;;;11.50;4.17;;;19.50;71.00;;;;;;5010934;28;20205;-89
2022/10/22 00:38:55;;;;;;;13.17;4.43;;;19.50;71.20;;;;;;5011536;28;20215;-91
2022/10/22 00:41:24;;;;;;;15.97;4.80;;;19.50;71.40;;;;;;5015556;28;20284;-90
2022/10/22 00:43:56;;;;;;;21.20;5.07;;;19.50;71.60;;;;;;5043649;28;20600;-90
2022/10/22 00:46:25;;;;;;;8.43;2.90;;;19.50;71.80;;;;;;5012077;28;20232;-89
2022/10/22 00:48:52;;;;;;;16.50;5.07;;;19.40;71.60;;;;;;5012094;28;20305;-90
2022/10/22 00:51:21;;;;;;;11.20;3.87;;;19.40;71.70;;;;;;5020242;28;20229;-89
2022/10/22 00:53:52;;;;;;;11.33;3.97;;;19.40;71.80;;;;;;5032028;28;20862;-90
2022/10/22 00:56:19;;;;;;;20.27;5.33;;;19.40;72.00;;;;;;5024653;28;20205;-90
2022/10/22 00:58:52;;;;;;;16.67;4.10;;;19.40;72.00;;;;;;5012111;28;20216;-91
2022/10/22 01:01:26;;;;;;;14.90;5.00;;;19.30;72.00;;;;;;5019437;28;20219;-91
2022/10/22 01:03:53;;;;;;;14.37;4.13;;;19.30;72.30;;;;;;5030809;28;20240;-89
2022/10/22 01:06:26;;;;;;;12.93;4.57;;;19.30;72.10;;;;;;5026822;28;20239;-91
2022/10/22 01:09:02;;;;;;;10.47;3.30;;;19.30;72.50;;;;;;5015172;28;20284;-89
2022/10/22 01:11:40;;;;;;;11.70;3.87;;;19.30;72.40;;;;;;5027143;28;20224;-90
2022/10/22 01:14:17;;;;;;;13.27;3.63;;;19.30;72.50;;;;;;5015779;28;20268;-90
2022/10/22 01:16:55;;;;;;;12.03;3.43;;;19.20;72.40;;;;;;5015861;28;20294;-88
2022/10/22 01:19:51;;;;;;;10.93;3.47;;;19.20;72.40;;;;;;5030220;28;20200;-91
2022/10/22 01:22:26;;;;;;;10.07;3.87;;;19.20;72.90;;;;;;5027645;28;20622;-90
2022/10/22 01:25:05;;;;;;;14.97;3.83;;;19.20;72.40;;;;;;5024616;28;20690;-93
2022/10/22 01:27:43;;;;;;;9.87;3.63;;;19.20;72.80;;;;;;5025877;28;20214;-92
2022/10/22 01:30:16;;;;;;;11.37;3.20;;;19.20;72.90;;;;;;5016236;28;20217;-89
2022/10/22 01:32:48;;;;;;;9.27;3.03;;;19.10;72.80;;;;;;5031121;28;20200;-91
2022/10/22 01:35:22;;;;;;;8.27;3.07;;;19.10;72.80;;;;;;5019817;28;20263;-90
2022/10/22 01:37:53;;;;;;;10.13;3.40;;;19.10;72.90;;;;;;5016897;28;20204;-91
2022/10/22 01:40:21;;;;;;;8.27;3.23;;;19.20;73.10;;;;;;5033988;28;20403;-93
2022/10/22 01:42:57;;;;;;;10.77;4.10;;;19.10;73.60;;;;;;5022887;28;20208;-88
2022/10/22 01:45:26;;;;;;;10.07;3.93;;;19.00;73.10;;;;;;5019593;28;20240;-91
2022/10/22 01:48:01;;;;;;;14.27;3.97;;;19.10;73.10;;;;;;5028007;28;20382;-91
2022/10/22 01:51:03;;;;;;;10.33;3.57;;;19.10;73.40;;;;;;5020412;28;20204;-90
2022/10/22 01:53:40;;;;;;;10.27;3.67;;;19.00;73.70;;;;;;5014387;28;20290;-90
2022/10/22 01:56:23;;;;;;;11.97;3.67;;;19.00;73.50;;;;;;5023098;28;20840;-90
2022/10/22 01:58:56;;;;;;;8.50;3.60;;;19.00;74.50;;;;;;5033185;28;20215;-88
2022/10/22 02:01:32;;;;;;;13.63;3.73;;;19.00;73.60;;;;;;5019906;28;20336;-87
2022/10/22 02:04:05;;;;;;;12.40;3.50;;;19.00;73.60;;;;;;5025777;28;20229;-87
2022/10/22 02:06:36;;;;;;;10.33;3.47;;;19.00;73.40;;;;;;5014922;28;20232;-90
2022/10/22 02:09:05;;;;;;;8.07;2.83;;;19.00;73.50;;;;;;5021503;28;20287;-89
2022/10/22 02:11:32;;;;;;;11.07;3.30;;;19.00;73.60;;;;;;5033215;28;20258;-90
2022/10/22 02:14:03;;;;;;;13.80;3.47;;;19.00;73.50;;;;;;5036588;28;20715;-89
2022/10/22 02:16:35;;;;;;;11.33;3.70;;;19.00;73.80;;;;;;5027128;28;20272;-90
2022/10/22 02:19:11;;;;;;;12.57;3.53;;;19.00;73.90;;;;;;5014312;28;20281;-90
2022/10/22 02:21:38;;;;;;;10.90;3.60;;;18.90;74.00;;;;;;5028315;28;20259;-90
2022/10/22 02:24:06;;;;;;;13.10;4.20;;;18.90;73.60;;;;;;5030991;28;21210;-90
2022/10/22 02:26:39;;;;;;;9.17;3.37;;;18.90;73.80;;;;;;5024642;28;20301;-90
2022/10/22 02:29:11;;;;;;;12.23;3.57;;;18.90;74.00;;;;;;5026659;28;20276;-89
2022/10/22 02:31:43;;;;;;;10.73;3.63;;;18.90;74.00;;;;;;5023790;28;20238;-89
2022/10/22 02:34:14;;;;;;;13.03;3.87;;;18.90;74.10;;;;;;5016387;28;20210;-91
2022/10/22 02:36:43;;;;;;;8.87;3.07;;;18.90;74.20;;;;;;5019392;28;20209;-91
2022/10/22 02:39:13;;;;;;;10.83;3.40;;;18.90;74.90;;;;;;5014345;28;20286;-88
2022/10/22 02:41:42;;;;;;;12.50;3.67;;;18.80;74.80;;;;;;5023503;28;20209;-89
2022/10/22 02:44:10;;;;;;;10.43;3.57;;;18.80;74.10;;;;;;5025557;28;20227;-90
2022/10/22 02:46:39;;;;;;;13.43;3.67;;;18.80;74.30;;;;;;5030660;28;20311;-91
2022/10/22 02:49:06;;;;;;;13.60;3.87;;;18.80;74.40;;;;;;5030115;28;20291;-89
2022/10/22 02:51:34;;;;;;;9.63;3.60;;;18.80;74.40;;;;;;5025899;28;20288;-89
2022/10/22 02:54:02;;;;;;;20.90;6.47;;;18.80;74.60;;;;;;5012251;28;20299;-89
2022/10/22 02:56:29;;;;;;;12.63;4.00;;;18.70;74.40;;;;;;5020133;28;20292;-90
2022/10/22 02:58:56;;;;;;;10.33;3.80;;;18.80;74.60;;;;;;5031131;28;20215;-89
2022/10/22 03:01:25;;;;;;;11.17;3.80;;;18.80;74.60;;;;;;5013471;28;20631;-90
2022/10/22 03:03:54;;;;;;;14.60;4.03;;;18.70;74.80;;;;;;5017284;28;20239;-92
2022/10/22 03:06:23;;;;;;;15.47;4.83;;;18.70;74.80;;;;;;5030873;28;20276;-91
2022/10/22 03:08:50;;;;;;;10.80;3.50;;;18.70;74.60;;;;;;5028260;28;20814;-88
2022/10/22 03:11:17;;;;;;;9.57;3.30;;;18.70;74.60;;;;;;5025440;28;20197;-90
2022/10/22 03:13:44;;;;;;;12.67;3.87;;;18.70;74.70;;;;;;5016621;28;20848;-92
2022/10/22 03:16:10;;;;;;;10.70;3.50;;;18.70;74.80;;;;;;5014058;28;20212;-89
2022/10/22 03:18:37;;;;;;;13.03;3.87;;;18.70;75.00;;;;;;5012216;28;20276;-90
2022/10/22 03:21:15;;;;;;;9.87;3.53;;;18.70;75.10;;;;;;5013781;28;20257;-88
2022/10/22 03:23:44;;;;;;;14.30;4.67;;;18.70;75.60;;;;;;5018729;28;20282;-91
2022/10/22 03:26:13;;;;;;;9.90;2.97;;;18.60;75.40;;;;;;5017269;28;20300;-89
2022/10/22 03:28:42;;;;;;;10.07;3.60;;;18.60;75.50;;;;;;5013376;28;20243;-90
2022/10/22 03:31:09;;;;;;;13.57;3.63;;;18.70;75.60;;;;;;5013803;28;20231;-91
2022/10/22 03:33:37;;;;;;;15.20;4.03;;;18.70;75.60;;;;;;5013216;28;20775;-89
2022/10/22 03:36:08;;;;;;;9.60;3.47;;;18.70;75.60;;;;;;5031183;28;20744;-89
2022/10/22 03:38:36;;;;;;;13.20;3.70;;;18.70;75.60;;;;;;5026794;28;20710;-90
2022/10/22 03:41:04;;;;;;;12.10;3.60;;;18.60;75.50;;;;;;5024929;28;20296;-90
2022/10/22 03:43:31;;;;;;;15.80;4.63;;;18.70;75.80;;;;;;5029367;28;20209;-89
2022/10/22 03:45:58;;;;;;;14.80;3.53;;;18.70;75.80;;;;;;5033155;28;20227;-90
2022/10/22 03:48:25;;;;;;;15.47;4.40;;;18.70;76.00;;;;;;5029485;28;20311;-90
2022/10/22 03:50:52;;;;;;;9.20;3.33;;;18.70;76.10;;;;;;5013592;28;20256;-89
2022/10/22 03:53:21;;;;;;;10.57;3.30;;;18.70;76.00;;;;;;5031759;28;20743;-93
2022/10/22 03:55:48;;;;;;;11.17;3.40;;;18.70;76.30;;;;;;5029548;28;20986;-90
2022/10/22 03:58:15;;;;;;;12.47;3.33;;;18.70;76.00;;;;;;5032309;28;20282;-90
2022/10/22 04:00:42;;;;;;;17.20;4.93;;;18.70;76.20;;;;;;5031793;28;20219;-92
2022/10/22 04:03:09;;;;;;;13.20;4.13;;;18.70;76.10;;;;;;5042931;28;20261;-91
2022/10/22 04:05:36;;;;;;;9.30;3.27;;;18.70;76.10;;;;;;5015171;28;20246;-93
2022/10/22 04:08:04;;;;;;;9.60;3.03;;;18.70;76.20;;;;;;5028420;28;20269;-92
2022/10/22 04:10:33;;;;;;;11.43;3.13;;;18.80;76.50;;;;;;5022568;28;20296;-92
2022/10/22 04:13:00;;;;;;;12.37;3.13;;;18.80;76.50;;;;;;5013280;28;20712;-93
2022/10/22 04:15:31;;;;;;;9.83;3.03;;;18.80;76.40;;;;;;5016856;28;20661;-91
2022/10/22 04:18:00;;;;;;;14.50;3.83;;;18.80;76.70;;;;;;5012615;28;20669;-92
2022/10/22 04:20:28;;;;;;;12.63;3.40;;;18.80;76.70;;;;;;5028025;28;20561;-91
2022/10/22 04:22:55;;;;;;;11.23;4.07;;;18.80;76.40;;;;;;5032771;28;20204;-92
2022/10/22 04:25:24;;;;;;;12.47;3.20;;;18.90;77.30;;;;;;5020852;28;20688;-89
2022/10/22 04:27:56;;;;;;;12.07;3.70;;;18.80;76.50;;;;;;5032851;28;20283;-90
2022/10/22 04:30:23;;;;;;;6.07;2.60;;;18.80;76.40;;;;;;5029841;28;20231;-90
2022/10/22 04:32:50;;;;;;;11.07;3.20;;;18.80;76.30;;;;;;5020012;28;20205;-88
2022/10/22 04:35:17;;;;;;;14.13;3.67;;;18.90;76.50;;;;;;5011428;28;20205;-88
2022/10/22 04:37:45;;;;;;;8.57;2.83;;;18.90;76.50;;;;;;5012212;28;20294;-91
2022/10/22 04:40:12;;;;;;;8.47;2.50;;;18.90;76.50;;;;;;5011350;28;20239;-91
2022/10/22 04:42:39;;;;;;;9.87;2.90;;;18.90;76.60;;;;;;5015813;28;20300;-91
2022/10/22 04:45:09;;;;;;;10.67;3.67;;;18.90;76.80;;;;;;5016488;28;20224;-93
2022/10/22 04:47:37;;;;;;;11.50;3.20;;;18.90;77.30;;;;;;5011246;28;20501;-90
2022/10/22 04:50:05;;;;;;;11.20;3.47;;;18.90;77.30;;;;;;5023864;28;20245;-90
2022/10/22 04:52:32;;;;;;;19.37;4.67;;;18.90;77.20;;;;;;5012876;28;20212;-89
2022/10/22 04:54:59;;;;;;;14.27;4.27;;;18.80;77.10;;;;;;5025246;28;20260;-89
2022/10/22 04:57:30;;;;;;;14.03;4.20;;;18.80;77.20;;;;;;5017745;28;20317;-91
2022/10/22 04:59:57;;;;;;;9.97;3.33;;;18.80;77.70;;;;;;5030725;28;20229;-89
2022/10/22 05:02:28;;;;;;;12.03;3.30;;;18.80;77.50;;;;;;5024086;28;20295;-90
2022/10/22 05:04:57;;;;;;;11.30;3.93;;;18.80;78.10;;;;;;5015694;28;20648;-91
2022/10/22 05:07:24;;;;;;;8.87;3.13;;;18.70;78.00;;;;;;5029520;28;20237;-88
2022/10/22 05:09:51;;;;;;;12.13;2.93;;;18.70;79.00;;;;;;5027857;28;20221;-89
2022/10/22 05:12:20;;;;;;;9.20;3.23;;;18.70;78.50;;;;;;5012324;28;20295;-89
2022/10/22 05:14:48;;;;;;;21.33;5.43;;;18.60;78.90;;;;;;5010712;28;20304;-89
2022/10/22 05:17:15;;;;;;;8.70;2.57;;;18.60;78.90;;;;;;5012055;28;20728;-90
2022/10/22 05:19:43;;;;;;;17.80;5.20;;;18.60;79.10;;;;;;5010306;28;20315;-90
2022/10/22 05:22:11;;;;;;;10.87;3.40;;;18.60;79.60;;;;;;5011272;28;20204;-86
2022/10/22 05:24:38;;;;;;;13.63;4.57;;;18.60;79.50;;;;;;5012812;28;20244;-91
2022/10/22 05:27:05;;;;;;;13.87;3.90;;;18.50;79.50;;;;;;5034295;28;20320;-90
2022/10/22 05:29:32;;;;;;;8.20;2.80;;;18.50;79.70;;;;;;5038303;28;20246;-89
2022/10/22 05:32:01;;;;;;;11.03;3.37;;;18.50;79.70;;;;;;5034664;28;20249;-91
2022/10/22 05:34:28;;;;;;;11.43;3.43;;;18.50;80.00;;;;;;5035685;28;20223;-89
2022/10/22 05:36:56;;;;;;;16.50;4.10;;;18.50;80.00;;;;;;5033274;28;20297;-91
2022/10/22 05:39:24;;;;;;;12.83;3.50;;;18.50;80.40;;;;;;5038266;28;20294;-89
2022/10/22 05:41:51;;;;;;;11.60;3.40;;;18.50;80.20;;;;;;5035980;28;20608;-90
2022/10/22 05:44:20;;;;;;;13.70;3.00;;;18.50;80.60;;;;;;5036541;28;20277;-91
2022/10/22 05:46:48;;;;;;;18.47;5.27;;;18.50;80.80;;;;;;5029832;28;20317;-90
2022/10/22 05:49:16;;;;;;;12.93;3.57;;;18.50;81.00;;;;;;5027322;28;20731;-90
2022/10/22 05:51:43;;;;;;;12.73;3.20;;;18.50;81.00;;;;;;5032878;28;20212;-90
2022/10/22 05:54:18;;;;;;;11.37;3.47;;;18.50;81.40;;;;;;5033891;28;20300;-89
2022/10/22 05:56:45;;;;;;;11.17;3.30;;;18.50;82.00;;;;;;5038502;28;20194;-92
2022/10/22 05:59:15;;;;;;;10.27;3.03;;;18.50;81.40;;;;;;5037385;28;20957;-88
2022/10/22 06:01:42;;;;;;;15.97;4.57;;;18.50;82.00;;;;;;5037599;28;20794;-89
2022/10/22 06:04:11;;;;;;;9.80;3.53;;;18.50;82.60;;;;;;5037974;28;20286;-88
2022/10/22 06:06:43;;;;;;;12.93;3.67;;;18.40;82.20;;;;;;5039958;28;20235;-89
2022/10/22 06:09:17;;;;;;;12.73;3.60;;;18.40;82.50;;;;;;5038912;28;20211;-89
2022/10/22 06:11:44;;;;;;;15.73;4.37;;;18.40;83.00;;;;;;5037631;28;20238;-89
2022/10/22 06:14:12;;;;;;;13.30;4.07;;;18.40;82.40;;;;;;5034685;28;20203;-89
2022/10/22 06:16:42;;;;;;;20.20;5.33;;;18.40;82.20;;;;;;5038984;28;20206;-89
2022/10/22 06:19:11;;;;;;;13.27;3.67;;;18.40;82.30;;;;;;5042227;28;20215;-90
2022/10/22 06:21:39;;;;;;;15.80;4.70;;;18.40;82.70;;;;;;5040200;28;20218;-91
2022/10/22 06:24:07;;;;;;;18.93;5.03;;;18.40;82.90;;;;;;5037203;28;20303;-89
2022/10/22 06:26:38;;;;;;;10.50;2.90;;;18.40;83.00;;;;;;5017630;28;20318;-90
2022/10/22 06:29:05;;;;;;;13.47;4.27;;;18.40;83.50;;;;;;5051318;28;20210;-89
2022/10/22 06:31:35;;;;;;;11.53;3.80;;;18.40;83.10;;;;;;5030709;28;20334;-88
2022/10/22 06:34:02;;;;;;;10.20;3.33;;;18.40;83.10;;;;;;5011532;28;20232;-90
2022/10/22 06:36:29;;;;;;;17.13;3.83;;;18.30;83.30;;;;;;5022653;28;20242;-91
2022/10/22 06:38:57;;;;;;;14.70;4.00;;;18.30;83.40;;;;;;5028026;28;20250;-90
2022/10/22 06:41:24;;;;;;;11.87;4.47;;;18.30;83.50;;;;;;5016962;28;20212;-92
2022/10/22 06:43:54;;;;;;;32.57;9.17;;;18.30;83.60;;;;;;5027717;28;20969;-92
2022/10/22 06:46:22;;;;;;;18.03;4.10;;;18.30;84.00;;;;;;5014792;28;20232;-90
2022/10/22 06:48:50;;;;;;;10.43;3.40;;;18.30;84.00;;;;;;5019167;28;20628;-89
2022/10/22 06:51:19;;;;;;;12.87;3.40;;;18.30;84.10;;;;;;5009840;28;20252;-91
2022/10/22 06:53:47;;;;;;;14.30;3.80;;;18.30;84.00;;;;;;5010019;28;20274;-91
2022/10/22 06:56:16;;;;;;;9.10;3.07;;;18.30;84.30;;;;;;5014111;28;20661;-90
2022/10/22 06:58:43;;;;;;;16.43;4.13;;;18.30;84.50;;;;;;5026170;28;20226;-90
2022/10/22 07:01:14;;;;;;;14.07;3.57;;;18.30;84.20;;;;;;5018448;28;20648;-89
2022/10/22 07:03:42;;;;;;;14.70;4.17;;;18.30;84.90;;;;;;5012610;28;20209;-90
2022/10/22 07:06:12;;;;;;;13.63;3.83;;;18.30;84.70;;;;;;5026762;28;20302;-88
2022/10/22 07:08:39;;;;;;;11.40;3.67;;;18.40;84.80;;;;;;5026822;28;20294;-88
2022/10/22 07:11:07;;;;;;;11.70;3.37;;;18.40;84.70;;;;;;5026356;28;20203;-90
2022/10/22 07:13:35;;;;;;;13.03;4.03;;;18.40;84.90;;;;;;5018948;28;20289;-87
2022/10/22 07:16:02;;;;;;;17.20;4.00;;;18.40;84.60;;;;;;5011066;28;20307;-89
2022/10/22 07:18:31;;;;;;;12.17;3.10;;;18.40;84.80;;;;;;5009963;28;20297;-89
2022/10/22 07:20:58;;;;;;;17.40;4.30;;;18.50;85.00;;;;;;5023743;28;20319;-87
2022/10/22 07:23:25;;;;;;;14.37;3.67;;;18.50;84.60;;;;;;5029626;28;20207;-91
2022/10/22 07:25:55;;;;;;;17.10;4.03;;;18.50;84.60;;;;;;5027083;28;20680;-88
2022/10/22 07:28:22;;;;;;;16.47;4.03;;;18.50;84.70;;;;;;5024486;28;20339;-88
2022/10/22 07:30:50;;;;;;;12.20;3.27;;;18.50;84.50;;;;;;5019383;28;20316;-87
2022/10/22 07:33:17;;;;;;;16.70;5.03;;;18.60;84.60;;;;;;5024403;28;20205;-88
2022/10/22 07:35:45;;;;;;;10.60;3.47;;;18.60;84.20;;;;;;5020321;28;20713;-87
2022/10/22 07:38:12;;;;;;;11.57;3.87;;;18.60;84.40;;;;;;5013287;28;20212;-88
2022/10/22 07:40:39;;;;;;;16.37;4.30;;;18.70;84.10;;;;;;5024586;28;20305;-88
2022/10/22 07:43:06;;;;;;;20.17;6.17;;;18.70;84.20;;;;;;5025727;28;20847;-90
2022/10/22 07:45:33;;;;;;;16.43;4.03;;;18.70;84.10;;;;;;5026399;28;20226;-89
2022/10/22 07:48:01;;;;;;;13.57;3.87;;;18.70;84.10;;;;;;5027436;28;20286;-89
2022/10/22 07:50:28;;;;;;;15.43;3.80;;;18.80;84.20;;;;;;5031135;28;20214;-87
2022/10/22 07:52:56;;;;;;;15.13;4.70;;;18.80;84.20;;;;;;5030371;28;20211;-90
2022/10/22 07:55:23;;;;;;;12.77;4.80;;;18.80;84.10;;;;;;5029643;28;20643;-88
2022/10/22 07:57:50;;;;;;;20.23;5.47;;;18.80;84.00;;;;;;5033606;28;20235;-89
2022/10/22 08:00:18;;;;;;;13.33;4.07;;;18.90;84.20;;;;;;5016465;28;20304;-88
2022/10/22 08:02:45;;;;;;;15.60;3.57;;;18.90;84.00;;;;;;5010808;28;20676;-89
2022/10/22 08:05:13;;;;;;;7.83;2.93;;;18.90;84.00;;;;;;5012807;28;20200;-88
2022/10/22 08:07:40;;;;;;;11.30;3.93;;;18.90;84.00;;;;;;5023974;28;20235;-87
2022/10/22 08:10:10;;;;;;;14.03;3.63;;;18.90;84.00;;;;;;5011916;28;20201;-88
2022/10/22 08:12:39;;;;;;;11.73;3.23;;;18.90;84.00;;;;;;5011911;28;20196;-91
2022/10/22 08:15:07;;;;;;;16.03;4.87;;;19.00;84.10;;;;;;5016198;28;20296;-88
2022/10/22 08:17:34;;;;;;;13.20;4.10;;;19.00;84.10;;;;;;5026438;28;20295;-88
2022/10/22 08:20:01;;;;;;;16.20;3.93;;;19.00;83.70;;;;;;5016815;28;20200;-88
2022/10/22 08:22:28;;;;;;;13.43;3.93;;;19.00;83.80;;;;;;5015859;28;20204;-89
2022/10/22 08:24:55;;;;;;;13.37;4.50;;;19.10;83.90;;;;;;5025290;28;21600;-88
2022/10/22 08:27:23;;;;;;;14.10;4.33;;;19.10;83.60;;;;;;5033947;28;20763;-88
2022/10/22 08:29:50;;;;;;;10.73;3.17;;;19.10;83.80;;;;;;5014100;28;20225;-89
2022/10/22 08:32:17;;;;;;;9.40;3.03;;;19.10;83.70;;;;;;5009542;28;20308;-90
2022/10/22 08:34:44;;;;;;;14.10;4.17;;;19.10;83.80;;;;;;5007273;28;20216;-88
2022/10/22 08:37:13;;;;;;;11.53;4.07;;;19.20;83.70;;;;;;5010108;28;20236;-90
2022/10/22 08:39:40;;;;;;;11.07;3.40;;;19.20;83.60;;;;;;5010062;28;20727;-90
2022/10/22 08:42:27;;;;;;;13.57;3.77;;;19.20;83.40;;;;;;5029148;28;20208;-91
2022/10/22 08:45:12;;;;;;;13.37;3.63;;;19.30;83.90;;;;;;5031753;28;20644;-88
2022/10/22 08:47:53;;;;;;;18.10;4.80;;;19.30;84.10;;;;;;5038790;28;20267;-89
2022/10/22 08:50:33;;;;;;;16.23;4.63;;;19.40;84.20;;;;;;5011185;28;20213;-90
2022/10/22 08:53:06;;;;;;;14.83;3.90;;;19.40;83.90;;;;;;5011457;28;20205;-89
2022/10/22 08:55:35;;;;;;;11.40;3.70;;;19.50;84.00;;;;;;5021576;28;20256;-90
2022/10/22 08:58:17;;;;;;;11.53;3.27;;;19.50;83.70;;;;;;5013402;28;21046;-91
2022/10/22 09:00:55;;;;;;;18.30;5.63;;;19.50;83.50;;;;;;5029758;28;20943;-93
2022/10/22 09:03:45;;;;;;;14.43;4.10;;;19.60;83.40;;;;;;5036977;28;20204;-91
2022/10/22 09:06:15;;;;;;;16.40;4.63;;;19.70;83.40;;;;;;5011052;28;20213;-90
2022/10/22 09:08:44;;;;;;;8.20;3.10;;;19.80;83.00;;;;;;5027533;28;20242;-88
2022/10/22 09:11:23;;;;;;;14.67;4.00;;;19.80;82.60;;;;;;5019429;28;20295;-90
2022/10/22 09:13:52;;;;;;;12.40;3.33;;;19.90;82.50;;;;;;5016601;28;20780;-90
2022/10/22 09:16:29;;;;;;;14.90;4.70;;;19.90;81.80;;;;;;5018433;28;20284;-90
2022/10/22 09:19:09;;;;;;;10.43;3.30;;;19.90;81.50;;;;;;5025088;28;20209;-91
2022/10/22 09:21:44;;;;;;;23.57;7.07;;;19.90;81.60;;;;;;5012387;28;20905;-89
2022/10/22 09:24:16;;;;;;;16.70;5.70;;;20.00;82.10;;;;;;5013675;28;20200;-88
2022/10/22 09:26:45;;;;;;;17.43;4.30;;;20.00;81.80;;;;;;5005975;28;20220;-90
2022/10/22 09:29:19;;;;;;;15.10;4.83;;;20.00;81.80;;;;;;5007253;28;20201;-88
2022/10/22 09:31:47;;;;;;;18.73;5.57;;;20.00;82.10;;;;;;5011153;28;20212;-89
2022/10/22 09:34:15;;;;;;;12.47;3.90;;;20.10;81.40;;;;;;5028214;28;20765;-89
2022/10/22 09:36:42;;;;;;;10.57;4.23;;;20.10;81.40;;;;;;5017019;28;20308;-90
2022/10/22 09:39:23;;;;;;;11.83;3.80;;;20.10;81.40;;;;;;5011474;28;20283;-87
2022/10/22 09:41:50;;;;;;;10.60;3.73;;;20.20;81.60;;;;;;5023582;28;20245;-89
2022/10/22 09:44:18;;;;;;;18.07;5.53;;;20.20;81.30;;;;;;5021132;28;20215;-90
2022/10/22 09:46:47;;;;;;;17.67;4.83;;;20.30;82.20;;;;;;5015904;28;20207;-87
2022/10/22 09:49:16;;;;;;;13.03;4.00;;;20.30;81.60;;;;;;5044591;28;20584;-91
2022/10/22 09:51:52;;;;;;;15.83;4.60;;;20.40;81.10;;;;;;5022869;28;20288;-91
2022/10/22 09:54:23;;;;;;;15.50;4.87;;;20.50;80.30;;;;;;5030392;28;20236;-89
2022/10/22 09:57:03;;;;;;;14.23;4.00;;;20.50;80.30;;;;;;5014323;28;20241;-88
2022/10/22 09:59:32;;;;;;;12.13;4.20;;;20.60;79.80;;;;;;5011389;28;20215;-88
2022/10/22 10:02:03;;;;;;;11.47;3.77;;;20.70;79.70;;;;;;5022366;28;20216;-88
2022/10/22 10:04:36;;;;;;;15.43;3.80;;;20.80;79.10;;;;;;5018140;28;20239;-87
2022/10/22 10:07:03;;;;;;;14.17;3.87;;;20.80;78.80;;;;;;5030135;28;20209;-87
2022/10/22 10:09:34;;;;;;;12.03;3.60;;;20.80;78.90;;;;;;5014806;28;20213;-88
2022/10/22 10:12:11;;;;;;;12.00;3.07;;;20.90;78.60;;;;;;5020727;28;20212;-88
2022/10/22 10:14:46;;;;;;;12.30;3.80;;;21.00;78.50;;;;;;5028983;28;20200;-88
2022/10/22 10:17:22;;;;;;;11.50;3.73;;;21.00;78.10;;;;;;5011163;28;20315;-87
2022/10/22 10:20:16;;;;;;;11.73;4.47;;;21.10;78.50;;;;;;5009820;28;20202;-88
2022/10/22 10:22:53;;;;;;;11.90;4.10;;;21.20;77.10;;;;;;5016165;28;20211;-88
2022/10/22 10:25:41;;;;;;;10.80;3.43;;;21.20;77.40;;;;;;5031831;28;20209;-89
2022/10/22 10:28:20;;;;;;;14.97;3.47;;;21.30;75.90;;;;;;5028651;28;20311;-93
2022/10/22 10:30:54;;;;;;;14.30;4.37;;;21.30;76.00;;;;;;5032585;28;20985;-88
2022/10/22 10:33:34;;;;;;;13.00;4.03;;;21.40;76.70;;;;;;5026402;28;20676;-88
2022/10/22 10:36:10;;;;;;;15.77;4.67;;;21.50;75.50;;;;;;5030501;28;20211;-91
2022/10/22 10:38:45;;;;;;;11.17;3.87;;;21.50;75.20;;;;;;5031458;28;20267;-88
2022/10/22 10:41:21;;;;;;;14.27;3.53;;;21.60;74.40;;;;;;5027900;28;20201;-92
2022/10/22 10:44:14;;;;;;;11.33;4.10;;;21.60;74.40;;;;;;5036118;28;20605;-88
2022/10/22 10:46:50;;;;;;;23.67;5.87;;;21.60;74.10;;;;;;5019753;28;20205;-89
2022/10/22 10:49:23;;;;;;;13.57;3.33;;;21.60;74.10;;;;;;5034719;28;20630;-90
2022/10/22 10:51:58;;;;;;;13.73;4.37;;;21.70;73.80;;;;;;5031100;28;20297;-87
2022/10/22 10:54:46;;;;;;;19.47;5.10;;;21.70;73.30;;;;;;5029026;28;20722;-87
2022/10/22 10:57:22;;;;;;;13.40;4.20;;;21.70;73.40;;;;;;5029373;28;20205;-89
2022/10/22 11:00:03;;;;;;;11.27;3.63;;;21.70;73.30;;;;;;5022402;28;20289;-87
2022/10/22 11:03:05;;;;;;;10.30;3.23;;;21.70;73.20;;;;;;5009520;28;20696;-88
2022/10/22 11:05:39;;;;;;;11.57;2.97;;;21.70;72.50;;;;;;5027117;28;20284;-87
2022/10/22 11:08:13;;;;;;;14.37;4.13;;;21.80;73.30;;;;;;5020407;28;20990;-88
2022/10/22 11:10:44;;;;;;;9.57;3.47;;;21.80;73.50;;;;;;5022053;28;20205;-88
2022/10/22 11:13:18;;;;;;;10.57;3.20;;;21.80;73.30;;;;;;5010317;28;20318;-87
2022/10/22 11:15:50;;;;;;;10.70;4.00;;;21.90;72.90;;;;;;5026523;28;20224;-87
2022/10/22 11:18:22;;;;;;;9.40;3.23;;;22.00;72.80;;;;;;5028727;28;20213;-89
2022/10/22 11:20:57;;;;;;;18.43;6.33;;;22.00;72.30;;;;;;5026915;28;20211;-88
2022/10/22 11:23:30;;;;;;;18.63;5.87;;;22.20;71.60;;;;;;5030503;28;20204;-90
2022/10/22 11:26:01;;;;;;;10.30;4.17;;;22.20;71.10;;;;;;5028259;28;20296;-88
2022/10/22 11:28:33;;;;;;;14.93;4.53;;;22.20;71.20;;;;;;5011840;28;20236;-89
2022/10/22 11:31:02;;;;;;;11.00;3.87;;;22.30;71.40;;;;;;5022776;28;20225;-90
2022/10/22 11:33:38;;;;;;;15.13;4.80;;;22.30;71.80;;;;;;5010091;28;20341;-88
2022/10/22 11:36:08;;;;;;;13.63;4.07;;;22.40;71.20;;;;;;5012788;28;20201;-87
2022/10/22 11:38:35;;;;;;;12.43;3.87;;;22.50;71.50;;;;;;5008797;28;20284;-89
2022/10/22 11:41:06;;;;;;;11.13;4.07;;;22.70;71.50;;;;;;5023151;28;20236;-88
2022/10/22 11:43:35;;;;;;;12.00;4.47;;;22.80;71.10;;;;;;5037467;28;20228;-87
2022/10/22 11:46:27;;;;;;;12.60;3.33;;;23.00;70.60;;;;;;5027525;28;20215;-89
2022/10/22 11:49:16;;;;;;;10.40;3.20;;;23.10;69.20;;;;;;5020755;28;20643;-89
2022/10/22 11:51:46;;;;;;;13.07;3.87;;;23.30;67.40;;;;;;5008655;28;20212;-90
2022/10/22 11:54:30;;;;;;;10.87;3.80;;;23.40;67.70;;;;;;5007718;28;20225;-88
2022/10/22 11:57:17;;;;;;;9.90;3.47;;;23.60;66.90;;;;;;5019942;28;20211;-88
2022/10/22 11:59:50;;;;;;;10.70;3.20;;;23.70;66.90;;;;;;5017419;28;20216;-88
2022/10/22 12:02:40;;;;;;;14.33;3.57;;;23.80;66.10;;;;;;5023055;28;20287;-88
2022/10/22 12:05:35;;;;;;;10.13;3.67;;;24.00;65.50;;;;;;5013811;28;20236;-89
2022/10/22 12:08:24;;;;;;;11.27;3.30;;;24.10;65.20;;;;;;5005934;28;20261;-89
2022/10/22 12:11:03;;;;;;;11.93;3.60;;;24.30;64.90;;;;;;5011559;28;20209;-88
2022/10/22 12:13:34;;;;;;;13.17;4.30;;;24.40;65.60;;;;;;5025322;28;20300;-89
2022/10/22 12:16:03;;;;;;;9.10;3.20;;;24.50;65.50;;;;;;5007941;28;20215;-90
2022/10/22 12:18:40;;;;;;;8.73;3.07;;;24.70;64.60;;;;;;5007968;28;21142;-89
2022/10/22 12:21:16;;;;;;;7.67;3.10;;;24.80;64.20;;;;;;5007932;28;20219;-88
2022/10/22 12:23:45;;;;;;;11.13;3.30;;;24.80;65.10;;;;;;5031122;28;20222;-90
2022/10/22 12:26:27;;;;;;;11.57;3.93;;;24.80;63.80;;;;;;5024275;28;20333;-88
2022/10/22 12:28:58;;;;;;;9.03;3.00;;;24.90;63.00;;;;;;5009167;28;20231;-90
2022/10/22 12:31:25;;;;;;;7.43;3.13;;;25.00;63.50;;;;;;5018699;28;20274;-91
2022/10/22 12:33:59;;;;;;;11.70;4.10;;;25.10;64.00;;;;;;5027306;28;20248;-90
2022/10/22 12:36:27;;;;;;;11.33;4.33;;;25.20;62.20;;;;;;5023578;28;20212;-90
2022/10/22 12:38:59;;;;;;;14.43;4.30;;;25.30;63.60;;;;;;5008559;28;20212;-88
2022/10/22 12:41:31;;;;;;;9.80;3.60;;;25.40;62.90;;;;;;5025090;28;20504;-88
2022/10/22 12:43:59;;;;;;;9.67;3.33;;;25.40;62.80;;;;;;5028167;28;20209;-89
2022/10/22 12:46:28;;;;;;;13.50;4.43;;;25.40;62.20;;;;;;5024824;28;20205;-89
2022/10/22 12:48:59;;;;;;;15.20;3.50;;;25.50;61.60;;;;;;5012250;28;20229;-90
2022/10/22 12:51:27;;;;;;;11.40;3.80;;;25.50;60.90;;;;;;5027355;28;20219;-89
2022/10/22 12:54:01;;;;;;;7.47;2.53;;;25.60;60.70;;;;;;5010003;28;20205;-90
2022/10/22 12:56:31;;;;;;;12.03;3.67;;;25.60;60.00;;;;;;5024889;28;20290;-88
2022/10/22 12:59:01;;;;;;;12.97;3.63;;;25.50;60.10;;;;;;5028210;28;20291;-88